sensor_id;sensor_type;location;lat;lon;timestamp;temperature;humidity
12634;DHT22;6382;48.614;8.880;2022-09-02T02:14:20;10.60;99.90
12634;DHT22;6382;48.614;8.880;2022-09-02T02:16:47;10.60;99.90
12634;DHT22;6382;48.614;8.880;2022-09-02T02:19:14;10.60;99.90
12634;DHT22;6382;48.614;8.880;2022-09-02T02:21:41;10.40;99.90
12634;DHT22;6382;48.614;8.880;2022-09-02T02:24:07;10.40;99.90
12634;DHT22;6382;48.614;8.880;2022-09-02T02:26:34;10.40;99.90
12634;DHT22;6382;48.614;8.880;2022-09-02T02:29:01;10.40;99.90
12634;DHT22;6382;48.614;8.880;2022-09-02T02:31:28;10.30;99.90
12634;DHT22;6382;48.614;8.880;2022-09-02T02:33:55;10.30;99.90
12634;DHT22;6382;48.614;8.880;2022-09-02T02:36:22;12.00;99.90
12634;DHT22;6382;48.614;8.880;2022-09-02T02:38:48;11.80;99.90
12634;DHT22;6382;48.614;8.880;2022-09-02T02:41:15;10.30;99.90
12634;DHT22;6382;48.614;8.880;2022-09-02T02:43:42;10.30;99.90
12634;DHT22;6382;48.614;8.880;2022-09-02T02:46:09;10.30;99.90
12634;DHT22;6382;48.614;8.880;2022-09-02T02:48:37;10.30;99.90
12634;DHT22;6382;48.614;8.880;2022-09-02T02:51:04;10.50;99.90
12634;DHT22;6382;48.614;8.880;2022-09-02T02:53:32;10.30;99.90
12634;DHT22;6382;48.614;8.880;2022-09-02T02:56:00;10.30;99.90
12634;DHT22;6382;48.614;8.880;2022-09-02T02:58:27;10.40;99.90
12634;DHT22;6382;48.614;8.880;2022-09-02T03:00:54;10.40;99.90
12634;DHT22;6382;48.614;8.880;2022-09-02T03:03:21;12.70;99.90
12634;DHT22;6382;48.614;8.880;2022-09-02T03:05:48;10.30;99.90
12634;DHT22;6382;48.614;8.880;2022-09-02T03:08:16;11.40;99.90
12634;DHT22;6382;48.614;8.880;2022-09-02T03:10:47;10.40;99.90
12634;DHT22;6382;48.614;8.880;2022-09-02T03:13:20;10.30;99.90
12634;DHT22;6382;48.614;8.880;2022-09-02T03:15:47;10.30;99.90
12634;DHT22;6382;48.614;8.880;2022-09-02T03:18:14;11.10;99.90
12634;DHT22;6382;48.614;8.880;2022-09-02T03:20:41;11.30;99.90
12634;DHT22;6382;48.614;8.880;2022-09-02T03:23:08;10.60;99.90
12634;DHT22;6382;48.614;8.880;2022-09-02T03:25:35;11.30;99.90
12634;DHT22;6382;48.614;8.880;2022-09-02T03:28:02;11.50;99.90
12634;DHT22;6382;48.614;8.880;2022-09-02T03:30:30;10.30;99.90
12634;DHT22;6382;48.614;8.880;2022-09-02T03:32:57;10.40;99.90
12634;DHT22;6382;48.614;8.880;2022-09-02T03:35:30;11.30;99.90
12634;DHT22;6382;48.614;8.880;2022-09-02T03:37:57;10.70;99.90
12634;DHT22;6382;48.614;8.880;2022-09-02T03:40:25;11.70;99.90
12634;DHT22;6382;48.614;8.880;2022-09-02T03:42:52;10.40;99.90
12634;DHT22;6382;48.614;8.880;2022-09-02T03:45:25;11.50;99.90
12634;DHT22;6382;48.614;8.880;2022-09-02T03:47:52;11.40;99.90
12634;DHT22;6382;48.614;8.880;2022-09-02T03:50:21;13.00;99.90
12634;DHT22;6382;48.614;8.880;2022-09-02T03:52:48;10.30;99.90
12634;DHT22;6382;48.614;8.880;2022-09-02T03:55:15;10.30;99.90
12634;DHT22;6382;48.614;8.880;2022-09-02T03:57:44;10.90;99.90
12634;DHT22;6382;48.614;8.880;2022-09-02T04:00:11;10.20;99.90
12634;DHT22;6382;48.614;8.880;2022-09-02T04:02:40;10.10;99.90
12634;DHT22;6382;48.614;8.880;2022-09-02T04:05:09;10.10;99.90
12634;DHT22;6382;48.614;8.880;2022-09-02T04:07:41;11.10;99.90
12634;DHT22;6382;48.614;8.880;2022-09-02T04:10:12;10.10;99.90
12634;DHT22;6382;48.614;8.880;2022-09-02T04:12:39;11.00;99.90
12634;DHT22;6382;48.614;8.880;2022-09-02T04:15:07;10.10;99.90
12634;DHT22;6382;48.614;8.880;2022-09-02T04:17:34;10.00;99.90
12634;DHT22;6382;48.614;8.880;2022-09-02T04:20:03;10.00;99.90
12634;DHT22;6382;48.614;8.880;2022-09-02T04:22:30;10.00;99.90
12634;DHT22;6382;48.614;8.880;2022-09-02T04:24:57;11.80;99.90
12634;DHT22;6382;48.614;8.880;2022-09-02T04:27:23;10.00;99.90
12634;DHT22;6382;48.614;8.880;2022-09-02T04:29:50;10.00;99.90
12634;DHT22;6382;48.614;8.880;2022-09-02T04:32:17;11.60;99.90
12634;DHT22;6382;48.614;8.880;2022-09-02T04:34:45;9.90;99.90
12634;DHT22;6382;48.614;8.880;2022-09-02T04:37:15;9.90;99.90
12634;DHT22;6382;48.614;8.880;2022-09-02T04:39:42;10.70;99.90
12634;DHT22;6382;48.614;8.880;2022-09-02T04:42:08;11.60;99.90
12634;DHT22;6382;48.614;8.880;2022-09-02T04:44:35;9.90;99.90
12634;DHT22;6382;48.614;8.880;2022-09-02T04:47:02;11.20;99.90
12634;DHT22;6382;48.614;8.880;2022-09-02T04:49:29;9.90;99.90
12634;DHT22;6382;48.614;8.880;2022-09-02T04:51:58;10.70;99.90
12634;DHT22;6382;48.614;8.880;2022-09-02T04:54:25;9.90;99.90
12634;DHT22;6382;48.614;8.880;2022-09-02T04:56:52;10.00;99.90
12634;DHT22;6382;48.614;8.880;2022-09-02T04:59:19;11.30;99.90
12634;DHT22;6382;48.614;8.880;2022-09-02T05:01:47;11.40;99.90
12634;DHT22;6382;48.614;8.880;2022-09-02T05:04:16;9.80;99.90
12634;DHT22;6382;48.614;8.880;2022-09-02T05:06:42;9.70;99.90
12634;DHT22;6382;48.614;8.880;2022-09-02T05:09:10;9.80;99.90
12634;DHT22;6382;48.614;8.880;2022-09-02T05:11:37;9.90;99.90
12634;DHT22;6382;48.614;8.880;2022-09-02T05:14:04;9.80;99.90
12634;DHT22;6382;48.614;8.880;2022-09-02T05:16:33;9.80;99.90
12634;DHT22;6382;48.614;8.880;2022-09-02T05:19:03;9.80;99.90
12634;DHT22;6382;48.614;8.880;2022-09-02T05:21:30;9.80;99.90
12634;DHT22;6382;48.614;8.880;2022-09-02T05:23:59;10.60;99.90
12634;DHT22;6382;48.614;8.880;2022-09-02T05:26:26;11.30;99.90
12634;DHT22;6382;48.614;8.880;2022-09-02T05:28:53;9.90;99.90
12634;DHT22;6382;48.614;8.880;2022-09-02T05:31:20;10.80;99.90
12634;DHT22;6382;48.614;8.880;2022-09-02T05:33:47;11.30;99.90
12634;DHT22;6382;48.614;8.880;2022-09-02T05:36:15;10.50;99.90
12634;DHT22;6382;48.614;8.880;2022-09-02T05:38:43;10.00;99.90
12634;DHT22;6382;48.614;8.880;2022-09-02T05:41:11;10.10;99.90
12634;DHT22;6382;48.614;8.880;2022-09-02T05:43:40;10.10;99.90
12634;DHT22;6382;48.614;8.880;2022-09-02T05:46:08;11.60;99.90
12634;DHT22;6382;48.614;8.880;2022-09-02T05:48:36;12.10;99.90
12634;DHT22;6382;48.614;8.880;2022-09-02T05:51:22;10.30;99.90
12634;DHT22;6382;48.614;8.880;2022-09-02T05:53:55;10.40;99.90
12634;DHT22;6382;48.614;8.880;2022-09-02T05:56:22;10.50;99.90
12634;DHT22;6382;48.614;8.880;2022-09-02T05:58:49;10.90;99.90
12634;DHT22;6382;48.614;8.880;2022-09-02T06:01:17;12.40;99.90
12634;DHT22;6382;48.614;8.880;2022-09-02T06:03:44;10.70;99.90
12634;DHT22;6382;48.614;8.880;2022-09-02T06:06:11;8.60;99.90
12634;DHT22;6382;48.614;8.880;2022-09-02T06:08:37;11.60;99.90
12634;DHT22;6382;48.614;8.880;2022-09-02T06:11:06;11.00;99.90
12634;DHT22;6382;48.614;8.880;2022-09-02T06:13:34;11.00;99.90
12634;DHT22;6382;48.614;8.880;2022-09-02T06:16:01;11.50;99.90
12634;DHT22;6382;48.614;8.880;2022-09-02T06:18:28;11.20;99.90
12634;DHT22;6382;48.614;8.880;2022-09-02T06:20:55;12.40;99.90
12634;DHT22;6382;48.614;8.880;2022-09-02T06:23:21;11.40;99.90
12634;DHT22;6382;48.614;8.880;2022-09-02T06:25:48;13.00;99.90
12634;DHT22;6382;48.614;8.880;2022-09-02T06:28:15;11.60;99.90
12634;DHT22;6382;48.614;8.880;2022-09-02T06:30:43;12.70;99.90
12634;DHT22;6382;48.614;8.880;2022-09-02T06:33:10;11.90;99.90
12634;DHT22;6382;48.614;8.880;2022-09-02T06:35:38;12.00;99.90
12634;DHT22;6382;48.614;8.880;2022-09-02T06:38:05;12.10;99.90
12634;DHT22;6382;48.614;8.880;2022-09-02T06:40:32;13.80;99.90
12634;DHT22;6382;48.614;8.880;2022-09-02T06:42:59;12.30;99.90
12634;DHT22;6382;48.614;8.880;2022-09-02T06:45:26;12.40;99.90
12634;DHT22;6382;48.614;8.880;2022-09-02T06:47:53;12.50;99.90
12634;DHT22;6382;48.614;8.880;2022-09-02T06:50:20;12.90;99.90
12634;DHT22;6382;48.614;8.880;2022-09-02T06:52:46;12.70;99.90
12634;DHT22;6382;48.614;8.880;2022-09-02T06:55:13;13.40;99.90
12634;DHT22;6382;48.614;8.880;2022-09-02T06:57:41;12.90;99.90
12634;DHT22;6382;48.614;8.880;2022-09-02T07:00:09;13.10;99.90
12634;DHT22;6382;48.614;8.880;2022-09-02T07:02:36;12.00;99.90
12634;DHT22;6382;48.614;8.880;2022-09-02T07:05:03;14.00;99.90
12634;DHT22;6382;48.614;8.880;2022-09-02T07:07:36;13.40;99.90
12634;DHT22;6382;48.614;8.880;2022-09-02T07:10:04;13.50;99.90
12634;DHT22;6382;48.614;8.880;2022-09-02T07:12:38;13.60;99.90
12634;DHT22;6382;48.614;8.880;2022-09-02T07:15:10;13.60;99.90
12634;DHT22;6382;48.614;8.880;2022-09-02T07:17:36;13.70;99.90
12634;DHT22;6382;48.614;8.880;2022-09-02T07:20:04;13.80;99.90
12634;DHT22;6382;48.614;8.880;2022-09-02T07:22:31;13.90;99.90
12634;DHT22;6382;48.614;8.880;2022-09-02T07:24:58;14.00;99.90
12634;DHT22;6382;48.614;8.880;2022-09-02T07:27:24;15.50;99.90
12634;DHT22;6382;48.614;8.880;2022-09-02T07:29:51;14.30;99.90
12634;DHT22;6382;48.614;8.880;2022-09-02T07:32:19;14.30;99.90
12634;DHT22;6382;48.614;8.880;2022-09-02T07:34:47;14.40;99.90
12634;DHT22;6382;48.614;8.880;2022-09-02T07:37:14;16.80;99.90
12634;DHT22;6382;48.614;8.880;2022-09-02T07:39:41;14.60;99.90
12634;DHT22;6382;48.614;8.880;2022-09-02T07:42:09;16.80;99.90
12634;DHT22;6382;48.614;8.880;2022-09-02T07:44:36;17.00;99.90
12634;DHT22;6382;48.614;8.880;2022-09-02T07:47:03;15.30;99.90
12634;DHT22;6382;48.614;8.880;2022-09-02T07:49:32;14.90;99.90
12634;DHT22;6382;48.614;8.880;2022-09-02T07:52:18;15.00;99.90
12634;DHT22;6382;48.614;8.880;2022-09-02T07:54:45;15.20;99.90
12634;DHT22;6382;48.614;8.880;2022-09-02T07:57:12;15.30;99.90
12634;DHT22;6382;48.614;8.880;2022-09-02T07:59:39;15.40;99.90
12634;DHT22;6382;48.614;8.880;2022-09-02T08:02:06;15.50;99.90
12634;DHT22;6382;48.614;8.880;2022-09-02T08:04:33;15.60;99.90
12634;DHT22;6382;48.614;8.880;2022-09-02T08:07:00;15.70;99.90
12634;DHT22;6382;48.614;8.880;2022-09-02T08:09:27;15.80;99.90
12634;DHT22;6382;48.614;8.880;2022-09-02T08:11:54;16.00;99.90
12634;DHT22;6382;48.614;8.880;2022-09-02T08:14:23;16.10;99.90
12634;DHT22;6382;48.614;8.880;2022-09-02T08:16:51;14.80;99.90
12634;DHT22;6382;48.614;8.880;2022-09-02T08:19:19;16.30;99.90
12634;DHT22;6382;48.614;8.880;2022-09-02T08:21:46;16.50;99.90
12634;DHT22;6382;48.614;8.880;2022-09-02T08:24:13;18.40;99.90
12634;DHT22;6382;48.614;8.880;2022-09-02T08:26:40;16.60;99.90
12634;DHT22;6382;48.614;8.880;2022-09-02T08:29:07;16.70;99.90
12634;DHT22;6382;48.614;8.880;2022-09-02T08:31:35;16.70;99.90
12634;DHT22;6382;48.614;8.880;2022-09-02T08:34:02;16.80;99.90
12634;DHT22;6382;48.614;8.880;2022-09-02T08:36:29;16.80;99.90
12634;DHT22;6382;48.614;8.880;2022-09-02T08:38:55;16.90;99.90
12634;DHT22;6382;48.614;8.880;2022-09-02T08:41:26;17.00;99.90
12634;DHT22;6382;48.614;8.880;2022-09-02T08:43:58;17.10;99.90
12634;DHT22;6382;48.614;8.880;2022-09-02T08:46:26;17.20;99.90
12634;DHT22;6382;48.614;8.880;2022-09-02T08:53:53;17.40;99.90
12634;DHT22;6382;48.614;8.880;2022-09-02T08:56:23;17.40;99.90
12634;DHT22;6382;48.614;8.880;2022-09-02T08:58:51;17.50;99.90
12634;DHT22;6382;48.614;8.880;2022-09-02T09:04:05;17.60;99.90
12634;DHT22;6382;48.614;8.880;2022-09-02T09:07:17;16.40;99.90
12634;DHT22;6382;48.614;8.880;2022-09-02T09:12:12;17.80;99.90
12634;DHT22;6382;48.614;8.880;2022-09-02T09:19:53;18.00;99.90
12634;DHT22;6382;48.614;8.880;2022-09-02T09:22:21;18.10;99.90
12634;DHT22;6382;48.614;8.880;2022-09-02T09:24:50;18.20;99.90
12634;DHT22;6382;48.614;8.880;2022-09-02T09:27:18;18.30;99.90
12634;DHT22;6382;48.614;8.880;2022-09-02T09:29:47;18.40;99.90
12634;DHT22;6382;48.614;8.880;2022-09-02T09:32:28;18.40;99.90
12634;DHT22;6382;48.614;8.880;2022-09-02T09:34:56;18.60;99.90
12634;DHT22;6382;48.614;8.880;2022-09-02T09:40:20;18.80;99.90
12634;DHT22;6382;48.614;8.880;2022-09-02T09:45:44;18.90;99.90
12634;DHT22;6382;48.614;8.880;2022-09-02T09:50:42;19.10;99.90
12634;DHT22;6382;48.614;8.880;2022-09-02T09:53:19;17.90;99.90
12634;DHT22;6382;48.614;8.880;2022-09-02T09:56:00;19.40;99.90
12634;DHT22;6382;48.614;8.880;2022-09-02T09:58:49;19.50;99.90
12634;DHT22;6382;48.614;8.880;2022-09-02T10:01:30;19.50;99.90
12634;DHT22;6382;48.614;8.880;2022-09-02T10:04:02;19.60;99.90
12634;DHT22;6382;48.614;8.880;2022-09-02T10:06:41;19.60;99.90
12634;DHT22;6382;48.614;8.880;2022-09-02T10:14:20;19.70;99.90
12634;DHT22;6382;48.614;8.880;2022-09-02T10:16:52;19.80;99.90
12634;DHT22;6382;48.614;8.880;2022-09-02T10:26:58;20.00;99.90
12634;DHT22;6382;48.614;8.880;2022-09-02T10:34:41;20.20;99.90
12634;DHT22;6382;48.614;8.880;2022-09-02T10:37:15;20.30;99.90
12634;DHT22;6382;48.614;8.880;2022-09-02T10:39:51;20.30;99.90
12634;DHT22;6382;48.614;8.880;2022-09-02T10:45:09;20.30;99.90
12634;DHT22;6382;48.614;8.880;2022-09-02T10:47:38;20.40;99.90
12634;DHT22;6382;48.614;8.880;2022-09-02T10:52:53;20.40;99.90
12634;DHT22;6382;48.614;8.880;2022-09-02T10:58:00;20.50;99.90
12634;DHT22;6382;48.614;8.880;2022-09-02T11:00:28;20.60;99.90
12634;DHT22;6382;48.614;8.880;2022-09-02T11:08:20;21.10;99.90
12634;DHT22;6382;48.614;8.880;2022-09-02T11:11:04;21.10;99.90
12634;DHT22;6382;48.614;8.880;2022-09-02T11:16:17;21.10;99.90
12634;DHT22;6382;48.614;8.880;2022-09-02T11:19:00;21.10;99.90
12634;DHT22;6382;48.614;8.880;2022-09-02T11:24:02;20.90;99.90
12634;DHT22;6382;48.614;8.880;2022-09-02T11:26:32;20.90;99.90
12634;DHT22;6382;48.614;8.880;2022-09-02T11:29:05;20.90;99.90
12634;DHT22;6382;48.614;8.880;2022-09-02T11:31:37;21.00;99.90
12634;DHT22;6382;48.614;8.880;2022-09-02T11:34:18;21.00;99.90
12634;DHT22;6382;48.614;8.880;2022-09-02T11:36:47;21.00;99.90
12634;DHT22;6382;48.614;8.880;2022-09-02T11:39:19;21.10;99.90
12634;DHT22;6382;48.614;8.880;2022-09-02T11:44:54;21.10;99.90
12634;DHT22;6382;48.614;8.880;2022-09-02T11:55:16;21.40;99.90
12634;DHT22;6382;48.614;8.880;2022-09-02T11:57:53;21.50;99.90
12634;DHT22;6382;48.614;8.880;2022-09-02T12:00:30;21.50;99.90
12634;DHT22;6382;48.614;8.880;2022-09-02T12:03:21;21.50;99.90
12634;DHT22;6382;48.614;8.880;2022-09-02T12:06:06;21.50;99.90
12634;DHT22;6382;48.614;8.880;2022-09-02T12:11:02;21.50;99.90
12634;DHT22;6382;48.614;8.880;2022-09-02T12:18:38;21.50;99.90
12634;DHT22;6382;48.614;8.880;2022-09-02T12:21:15;21.60;99.90
12634;DHT22;6382;48.614;8.880;2022-09-02T12:28:52;21.70;99.90
12634;DHT22;6382;48.614;8.880;2022-09-02T12:33:48;21.60;99.90
12634;DHT22;6382;48.614;8.880;2022-09-02T12:37:02;21.60;99.90
12634;DHT22;6382;48.614;8.880;2022-09-02T12:47:13;21.90;99.90
12634;DHT22;6382;48.614;8.880;2022-09-02T12:55:09;22.00;99.90
12634;DHT22;6382;48.614;8.880;2022-09-02T12:57:39;22.10;99.90
12634;DHT22;6382;48.614;8.880;2022-09-02T13:00:06;22.10;99.90
12634;DHT22;6382;48.614;8.880;2022-09-02T13:02:58;22.20;99.90
12634;DHT22;6382;48.614;8.880;2022-09-02T13:16:32;22.50;99.90
12634;DHT22;6382;48.614;8.880;2022-09-02T13:19:22;22.40;99.90
12634;DHT22;6382;48.614;8.880;2022-09-02T13:25:07;22.30;99.90
12634;DHT22;6382;48.614;8.880;2022-09-02T13:30:52;22.30;99.90
12634;DHT22;6382;48.614;8.880;2022-09-02T13:33:23;22.30;99.90
12634;DHT22;6382;48.614;8.880;2022-09-02T13:35:54;22.40;99.90
12634;DHT22;6382;48.614;8.880;2022-09-02T13:38:24;22.40;99.90
12634;DHT22;6382;48.614;8.880;2022-09-02T13:40:52;22.30;99.90
12634;DHT22;6382;48.614;8.880;2022-09-02T13:43:20;22.30;99.90
12634;DHT22;6382;48.614;8.880;2022-09-02T13:45:47;22.30;99.90
12634;DHT22;6382;48.614;8.880;2022-09-02T13:48:22;22.40;99.90
12634;DHT22;6382;48.614;8.880;2022-09-02T13:50:50;22.50;99.90
12634;DHT22;6382;48.614;8.880;2022-09-02T13:56:22;22.50;99.90
12634;DHT22;6382;48.614;8.880;2022-09-02T13:58:51;22.40;99.90
12634;DHT22;6382;48.614;8.880;2022-09-02T14:03:52;22.50;99.90
12634;DHT22;6382;48.614;8.880;2022-09-02T14:06:21;22.50;99.90
12634;DHT22;6382;48.614;8.880;2022-09-02T14:08:49;22.40;99.90
12634;DHT22;6382;48.614;8.880;2022-09-02T14:11:17;22.30;99.90
12634;DHT22;6382;48.614;8.880;2022-09-02T14:13:48;22.30;99.90
12634;DHT22;6382;48.614;8.880;2022-09-02T14:16:34;22.40;99.90
12634;DHT22;6382;48.614;8.880;2022-09-02T14:19:44;22.50;99.90
12634;DHT22;6382;48.614;8.880;2022-09-02T14:21:52;22.50;99.90
12634;DHT22;6382;48.614;8.880;2022-09-02T14:24:25;22.50;99.90
12634;DHT22;6382;48.614;8.880;2022-09-02T14:29:27;22.50;99.90
12634;DHT22;6382;48.614;8.880;2022-09-02T14:32:28;23.90;99.90
12634;DHT22;6382;48.614;8.880;2022-09-02T14:34:48;22.50;99.90
12634;DHT22;6382;48.614;8.880;2022-09-02T14:37:23;24.20;99.90
12634;DHT22;6382;48.614;8.880;2022-09-02T14:40:02;22.70;99.90
12634;DHT22;6382;48.614;8.880;2022-09-02T14:42:32;22.60;99.90
12634;DHT22;6382;48.614;8.880;2022-09-02T14:45:00;22.60;99.90
12634;DHT22;6382;48.614;8.880;2022-09-02T14:47:28;22.90;99.90
12634;DHT22;6382;48.614;8.880;2022-09-02T14:49:55;22.70;99.90
12634;DHT22;6382;48.614;8.880;2022-09-02T14:52:24;25.00;99.90
12634;DHT22;6382;48.614;8.880;2022-09-02T14:54:51;22.80;99.90
12634;DHT22;6382;48.614;8.880;2022-09-02T14:59:48;22.70;99.90
12634;DHT22;6382;48.614;8.880;2022-09-02T15:02:22;23.60;99.90
12634;DHT22;6382;48.614;8.880;2022-09-02T15:04:49;22.60;99.90
12634;DHT22;6382;48.614;8.880;2022-09-02T15:07:16;23.30;99.90
12634;DHT22;6382;48.614;8.880;2022-09-02T15:09:43;23.60;99.90
12634;DHT22;6382;48.614;8.880;2022-09-02T15:12:11;22.60;99.90
12634;DHT22;6382;48.614;8.880;2022-09-02T15:14:45;23.80;99.90
12634;DHT22;6382;48.614;8.880;2022-09-02T15:17:13;23.80;99.90
12634;DHT22;6382;48.614;8.880;2022-09-02T15:19:40;22.60;99.90
12634;DHT22;6382;48.614;8.880;2022-09-02T15:22:06;21.40;99.90
12634;DHT22;6382;48.614;8.880;2022-09-02T15:24:33;22.70;99.90
12634;DHT22;6382;48.614;8.880;2022-09-02T15:27:00;22.60;99.90
12634;DHT22;6382;48.614;8.880;2022-09-02T15:29:26;22.80;99.90
12634;DHT22;6382;48.614;8.880;2022-09-02T15:31:54;23.50;99.90
12634;DHT22;6382;48.614;8.880;2022-09-02T15:34:25;23.80;99.90
12634;DHT22;6382;48.614;8.880;2022-09-02T15:36:52;24.50;99.90
12634;DHT22;6382;48.614;8.880;2022-09-02T15:39:20;24.10;99.90
12634;DHT22;6382;48.614;8.880;2022-09-02T15:41:48;22.40;99.90
12634;DHT22;6382;48.614;8.880;2022-09-02T15:44:16;22.40;99.90
12634;DHT22;6382;48.614;8.880;2022-09-02T15:46:43;22.70;99.90
12634;DHT22;6382;48.614;8.880;2022-09-02T15:49:11;23.30;99.90
12634;DHT22;6382;48.614;8.880;2022-09-02T15:51:38;22.40;99.90
12634;DHT22;6382;48.614;8.880;2022-09-02T15:54:06;22.60;99.90
12634;DHT22;6382;48.614;8.880;2022-09-02T15:56:34;22.30;99.90
12634;DHT22;6382;48.614;8.880;2022-09-02T15:59:02;22.20;99.90
12634;DHT22;6382;48.614;8.880;2022-09-02T16:01:30;23.70;99.90
12634;DHT22;6382;48.614;8.880;2022-09-02T16:03:57;22.00;99.90
12634;DHT22;6382;48.614;8.880;2022-09-02T16:06:24;24.70;99.90
12634;DHT22;6382;48.614;8.880;2022-09-02T16:08:51;24.10;99.90
12634;DHT22;6382;48.614;8.880;2022-09-02T16:11:18;23.60;99.90
12634;DHT22;6382;48.614;8.880;2022-09-02T16:13:45;22.70;99.90
12634;DHT22;6382;48.614;8.880;2022-09-02T16:16:11;24.20;99.90
12634;DHT22;6382;48.614;8.880;2022-09-02T16:18:39;24.90;99.90
12634;DHT22;6382;48.614;8.880;2022-09-02T16:21:07;22.20;99.90
12634;DHT22;6382;48.614;8.880;2022-09-02T16:23:34;22.80;99.90
12634;DHT22;6382;48.614;8.880;2022-09-02T16:26:05;21.90;99.90
12634;DHT22;6382;48.614;8.880;2022-09-02T16:28:38;21.90;99.90
12634;DHT22;6382;48.614;8.880;2022-09-02T16:31:06;22.00;99.90
12634;DHT22;6382;48.614;8.880;2022-09-02T16:33:34;22.10;99.90
12634;DHT22;6382;48.614;8.880;2022-09-02T16:36:01;24.90;99.90
12634;DHT22;6382;48.614;8.880;2022-09-02T16:38:28;22.20;99.90
12634;DHT22;6382;48.614;8.880;2022-09-02T16:40:55;22.30;99.90
12634;DHT22;6382;48.614;8.880;2022-09-02T16:43:22;25.10;99.90
12634;DHT22;6382;48.614;8.880;2022-09-02T16:45:50;22.20;99.90
12634;DHT22;6382;48.614;8.880;2022-09-02T16:48:21;22.10;99.90
12634;DHT22;6382;48.614;8.880;2022-09-02T16:50:51;22.10;99.90
12634;DHT22;6382;48.614;8.880;2022-09-02T16:53:18;22.10;99.90
12634;DHT22;6382;48.614;8.880;2022-09-02T16:55:45;22.10;99.90
12634;DHT22;6382;48.614;8.880;2022-09-02T16:58:12;22.80;99.90
12634;DHT22;6382;48.614;8.880;2022-09-02T17:00:40;21.90;99.90
12634;DHT22;6382;48.614;8.880;2022-09-02T17:03:08;23.10;99.90
12634;DHT22;6382;48.614;8.880;2022-09-02T17:05:35;22.10;99.90
12634;DHT22;6382;48.614;8.880;2022-09-02T17:08:02;23.20;99.90
12634;DHT22;6382;48.614;8.880;2022-09-02T17:10:29;21.50;99.90
12634;DHT22;6382;48.614;8.880;2022-09-02T17:12:56;21.40;99.90
12634;DHT22;6382;48.614;8.880;2022-09-02T17:15:23;22.40;99.90
12634;DHT22;6382;48.614;8.880;2022-09-02T17:17:52;22.50;99.90
12634;DHT22;6382;48.614;8.880;2022-09-02T17:20:19;22.60;99.90
12634;DHT22;6382;48.614;8.880;2022-09-02T17:22:46;22.50;99.90
12634;DHT22;6382;48.614;8.880;2022-09-02T17:25:13;21.00;99.90
12634;DHT22;6382;48.614;8.880;2022-09-02T17:27:40;22.80;99.90
12634;DHT22;6382;48.614;8.880;2022-09-02T17:30:07;23.10;99.90
12634;DHT22;6382;48.614;8.880;2022-09-02T17:32:36;20.80;99.90
12634;DHT22;6382;48.614;8.880;2022-09-02T17:35:04;21.20;99.90
12634;DHT22;6382;48.614;8.880;2022-09-02T17:37:32;20.70;99.90
12634;DHT22;6382;48.614;8.880;2022-09-02T17:40:01;21.20;99.90
12634;DHT22;6382;48.614;8.880;2022-09-02T17:42:28;20.50;99.90
12634;DHT22;6382;48.614;8.880;2022-09-02T17:44:55;21.90;99.90
12634;DHT22;6382;48.614;8.880;2022-09-02T17:47:23;21.50;99.90
12634;DHT22;6382;48.614;8.880;2022-09-02T17:49:50;20.30;99.90
12634;DHT22;6382;48.614;8.880;2022-09-02T17:52:18;20.50;99.90
12634;DHT22;6382;48.614;8.880;2022-09-02T17:54:47;22.70;99.90
12634;DHT22;6382;48.614;8.880;2022-09-02T18:00:04;20.00;99.90
12634;DHT22;6382;48.614;8.880;2022-09-02T18:05:25;19.90;99.90
12634;DHT22;6382;48.614;8.880;2022-09-02T18:07:56;19.80;99.90
12634;DHT22;6382;48.614;8.880;2022-09-02T18:10:39;19.70;99.90
12634;DHT22;6382;48.614;8.880;2022-09-02T18:13:12;19.70;99.90
12634;DHT22;6382;48.614;8.880;2022-09-02T18:15:43;20.90;
12634;DHT22;6382;48.614;8.880;2022-09-02T18:18:16;19.50;99.90
12634;DHT22;6382;48.614;8.880;2022-09-02T18:20:47;19.80;99.90
12634;DHT22;6382;48.614;8.880;2022-09-02T18:23:23;19.80;99.90
12634;DHT22;6382;48.614;8.880;2022-09-02T18:34:16;19.10;99.90
12634;DHT22;6382;48.614;8.880;2022-09-02T18:39:35;19.00;99.90
12634;DHT22;6382;48.614;8.880;2022-09-02T18:44:35;19.00;99.90
12634;DHT22;6382;48.614;8.880;2022-09-02T18:47:05;20.20;99.90
12634;DHT22;6382;48.614;8.880;2022-09-02T18:49:36;20.80;99.90
12634;DHT22;6382;48.614;8.880;2022-09-02T18:52:05;21.60;99.90
12634;DHT22;6382;48.614;8.880;2022-09-02T18:57:05;18.90;99.90
12634;DHT22;6382;48.614;8.880;2022-09-02T18:59:36;21.00;99.90
12634;DHT22;6382;48.614;8.880;2022-09-02T19:02:18;19.90;99.90
12634;DHT22;6382;48.614;8.880;2022-09-02T19:04:47;18.80;99.90
12634;DHT22;6382;48.614;8.880;2022-09-02T19:07:13;18.80;99.90
12634;DHT22;6382;48.614;8.880;2022-09-02T19:09:59;20.00;99.90
12634;DHT22;6382;48.614;8.880;2022-09-02T19:12:28;18.80;99.90
12634;DHT22;6382;48.614;8.880;2022-09-02T19:14:57;19.80;99.90
12634;DHT22;6382;48.614;8.880;2022-09-02T19:17:25;19.10;99.90
12634;DHT22;6382;48.614;8.880;2022-09-02T19:19:51;19.30;99.90
12634;DHT22;6382;48.614;8.880;2022-09-02T19:22:20;19.70;99.90
12634;DHT22;6382;48.614;8.880;2022-09-02T19:24:48;19.60;99.90
12634;DHT22;6382;48.614;8.880;2022-09-02T19:27:23;18.60;99.90
12634;DHT22;6382;48.614;8.880;2022-09-02T19:29:52;21.60;99.90
12634;DHT22;6382;48.614;8.880;2022-09-02T19:32:21;18.60;99.90
12634;DHT22;6382;48.614;8.880;2022-09-02T19:34:50;20.00;99.90
12634;DHT22;6382;48.614;8.880;2022-09-02T19:37:17;19.50;99.90
12634;DHT22;6382;48.614;8.880;2022-09-02T19:39:44;19.30;99.90
12634;DHT22;6382;48.614;8.880;2022-09-02T19:42:11;19.50;99.90
12634;DHT22;6382;48.614;8.880;2022-09-02T19:44:38;19.30;99.90
12634;DHT22;6382;48.614;8.880;2022-09-02T19:47:05;21.60;99.90
12634;DHT22;6382;48.614;8.880;2022-09-02T19:49:52;18.40;99.90
12634;DHT22;6382;48.614;8.880;2022-09-02T19:52:19;18.80;99.90
12634;DHT22;6382;48.614;8.880;2022-09-02T19:54:46;18.90;99.90
12634;DHT22;6382;48.614;8.880;2022-09-02T19:57:13;18.90;99.90
12634;DHT22;6382;48.614;8.880;2022-09-02T19:59:39;20.00;99.90
12634;DHT22;6382;48.614;8.880;2022-09-02T20:02:06;18.60;99.90
12634;DHT22;6382;48.614;8.880;2022-09-02T20:04:33;18.20;99.90
12634;DHT22;6382;48.614;8.880;2022-09-02T20:06:59;19.50;99.90
12634;DHT22;6382;48.614;8.880;2022-09-02T20:09:27;18.20;99.90
12634;DHT22;6382;48.614;8.880;2022-09-02T20:11:55;18.10;99.90
12634;DHT22;6382;48.614;8.880;2022-09-02T20:14:21;19.20;99.90
12634;DHT22;6382;48.614;8.880;2022-09-02T20:16:52;19.00;99.90
12634;DHT22;6382;48.614;8.880;2022-09-02T20:19:19;17.50;99.90
12634;DHT22;6382;48.614;8.880;2022-09-02T20:21:46;17.70;99.90
12634;DHT22;6382;48.614;8.880;2022-09-02T20:24:17;19.70;99.90
12634;DHT22;6382;48.614;8.880;2022-09-02T20:29:55;16.90;99.90
12634;DHT22;6382;48.614;8.880;2022-09-02T20:32:32;16.80;99.90
12634;DHT22;6382;48.614;8.880;2022-09-02T20:35:20;16.80;99.90
12634;DHT22;6382;48.614;8.880;2022-09-02T20:37:53;16.70;99.90
12634;DHT22;6382;48.614;8.880;2022-09-02T20:40:28;16.70;99.90
12634;DHT22;6382;48.614;8.880;2022-09-02T20:45:50;16.50;99.90
12634;DHT22;6382;48.614;8.880;2022-09-02T20:56:27;16.20;99.90
12634;DHT22;6382;48.614;8.880;2022-09-02T20:58:58;16.10;99.90